sensor_id;sensor_type;location;lat;lon;timestamp;P1;durP1;ratioP1;P2;durP2;ratioP2
1276;SDS011;631;51.024;13.826;2024-02-04T00:01:40;12.60;;;12.00;;
1276;SDS011;631;51.024;13.826;2024-02-04T00:04:05;12.40;;;11.80;;
1276;SDS011;631;51.024;13.826;2024-02-04T00:06:31;12.60;;;12.00;;
1276;SDS011;631;51.024;13.826;2024-02-04T00:08:56;12.60;;;12.00;;
1276;SDS011;631;51.024;13.826;2024-02-04T00:11:22;12.67;;;11.97;;
1276;SDS011;631;51.024;13.826;2024-02-04T00:13:48;12.67;;;12.00;;
1276;SDS011;631;51.024;13.826;2024-02-04T00:16:14;12.40;;;11.80;;
1276;SDS011;631;51.024;13.826;2024-02-04T00:18:39;12.60;;;12.00;;
1276;SDS011;631;51.024;13.826;2024-02-04T00:21:05;13.27;;;12.17;;
1276;SDS011;631;51.024;13.826;2024-02-04T00:23:31;12.40;;;11.80;;
1276;SDS011;631;51.024;13.826;2024-02-04T00:25:56;12.33;;;11.70;;
1276;SDS011;631;51.024;13.826;2024-02-04T00:28:22;11.97;;;11.37;;
1276;SDS011;631;51.024;13.826;2024-02-04T00:30:47;11.50;;;11.00;;
1276;SDS011;631;51.024;13.826;2024-02-04T00:33:20;11.67;;;11.17;;
1276;SDS011;631;51.024;13.826;2024-02-04T00:35:45;12.70;;;11.70;;
1276;SDS011;631;51.024;13.826;2024-02-04T00:38:11;12.50;;;11.90;;
1276;SDS011;631;51.024;13.826;2024-02-04T00:40:37;12.60;;;12.00;;
1276;SDS011;631;51.024;13.826;2024-02-04T00:43:02;12.60;;;12.00;;
1276;SDS011;631;51.024;13.826;2024-02-04T00:45:28;12.37;;;11.77;;
1276;SDS011;631;51.024;13.826;2024-02-04T00:47:54;12.40;;;11.80;;
1276;SDS011;631;51.024;13.826;2024-02-04T00:50:19;12.20;;;11.60;;
1276;SDS011;631;51.024;13.826;2024-02-04T00:52:45;12.53;;;11.93;;
1276;SDS011;631;51.024;13.826;2024-02-04T00:55:10;12.30;;;11.70;;
1276;SDS011;631;51.024;13.826;2024-02-04T00:57:36;13.10;;;12.47;;
1276;SDS011;631;51.024;13.826;2024-02-04T01:00:02;13.50;;;12.80;;
1276;SDS011;631;51.024;13.826;2024-02-04T01:02:28;12.63;;;12.03;;
1276;SDS011;631;51.024;13.826;2024-02-04T01:04:54;13.10;;;12.50;;
1276;SDS011;631;51.024;13.826;2024-02-04T01:07:20;13.50;;;12.90;;
1276;SDS011;631;51.024;13.826;2024-02-04T01:09:46;13.33;;;12.73;;
1276;SDS011;631;51.024;13.826;2024-02-04T01:12:11;13.10;;;12.40;;
1276;SDS011;631;51.024;13.826;2024-02-04T01:14:37;13.20;;;12.60;;
1276;SDS011;631;51.024;13.826;2024-02-04T01:17:02;13.00;;;12.40;;
1276;SDS011;631;51.024;13.826;2024-02-04T01:19:28;13.57;;;12.90;;
1276;SDS011;631;51.024;13.826;2024-02-04T01:21:54;13.00;;;12.30;;
1276;SDS011;631;51.024;13.826;2024-02-04T01:24:19;13.60;;;12.90;;
1276;SDS011;631;51.024;13.826;2024-02-04T01:26:45;13.00;;;12.40;;
1276;SDS011;631;51.024;13.826;2024-02-04T01:29:10;13.03;;;12.43;;
1276;SDS011;631;51.024;13.826;2024-02-04T01:31:36;13.10;;;12.50;;
1276;SDS011;631;51.024;13.826;2024-02-04T01:34:02;12.67;;;12.07;;
1276;SDS011;631;51.024;13.826;2024-02-04T01:36:28;12.80;;;12.20;;
1276;SDS011;631;51.024;13.826;2024-02-04T01:38:53;12.77;;;12.17;;
1276;SDS011;631;51.024;13.826;2024-02-04T01:41:19;13.20;;;12.50;;
1276;SDS011;631;51.024;13.826;2024-02-04T01:43:44;12.90;;;12.30;;
1276;SDS011;631;51.024;13.826;2024-02-04T01:46:11;13.10;;;12.40;;
1276;SDS011;631;51.024;13.826;2024-02-04T01:48:36;12.93;;;12.33;;
1276;SDS011;631;51.024;13.826;2024-02-04T01:51:02;12.60;;;12.10;;
1276;SDS011;631;51.024;13.826;2024-02-04T01:53:29;12.40;;;11.80;;
1276;SDS011;631;51.024;13.826;2024-02-04T01:55:57;12.80;;;12.20;;
1276;SDS011;631;51.024;13.826;2024-02-04T01:58:23;12.40;;;11.90;;
1276;SDS011;631;51.024;13.826;2024-02-04T02:00:49;12.60;;;12.00;;
1276;SDS011;631;51.024;13.826;2024-02-04T02:03:16;12.13;;;11.63;;
1276;SDS011;631;51.024;13.826;2024-02-04T02:05:41;12.10;;;11.60;;
1276;SDS011;631;51.024;13.826;2024-02-04T02:08:07;12.80;;;12.17;;
1276;SDS011;631;51.024;13.826;2024-02-04T02:10:34;12.50;;;11.80;;
1276;SDS011;631;51.024;13.826;2024-02-04T02:13:07;12.60;;;12.00;;
1276;SDS011;631;51.024;13.826;2024-02-04T02:15:39;12.37;;;11.80;;
1276;SDS011;631;51.024;13.826;2024-02-04T02:21:26;13.00;;;12.40;;
1276;SDS011;631;51.024;13.826;2024-02-04T02:24:24;12.10;;;11.50;;
1276;SDS011;631;51.024;13.826;2024-02-04T02:26:52;12.33;;;11.83;;
1276;SDS011;631;51.024;13.826;2024-02-04T02:29:19;12.50;;;11.90;;
1276;SDS011;631;51.024;13.826;2024-02-04T02:31:44;11.90;;;11.40;;
1276;SDS011;631;51.024;13.826;2024-02-04T02:34:10;12.40;;;11.80;;
1276;SDS011;631;51.024;13.826;2024-02-04T02:36:38;11.67;;;11.17;;
1276;SDS011;631;51.024;13.826;2024-02-04T02:39:13;12.03;;;11.53;;
1276;SDS011;631;51.024;13.826;2024-02-04T02:42:03;12.40;;;11.80;;
1276;SDS011;631;51.024;13.826;2024-02-04T02:44:29;12.57;;;11.97;;
1276;SDS011;631;51.024;13.826;2024-02-04T02:46:57;12.67;;;11.77;;
1276;SDS011;631;51.024;13.826;2024-02-04T02:49:24;12.60;;;12.00;;
1276;SDS011;631;51.024;13.826;2024-02-04T02:51:50;12.40;;;11.83;;
1276;SDS011;631;51.024;13.826;2024-02-04T02:54:15;13.03;;;12.40;;
1276;SDS011;631;51.024;13.826;2024-02-04T02:56:41;13.27;;;12.57;;
1276;SDS011;631;51.024;13.826;2024-02-04T02:59:06;13.30;;;12.60;;
1276;SDS011;631;51.024;13.826;2024-02-04T03:01:33;13.60;;;12.80;;
1276;SDS011;631;51.024;13.826;2024-02-04T03:04:00;13.27;;;12.53;;
1276;SDS011;631;51.024;13.826;2024-02-04T03:06:53;13.37;;;12.67;;
1276;SDS011;631;51.024;13.826;2024-02-04T03:09:19;13.50;;;12.80;;
1276;SDS011;631;51.024;13.826;2024-02-04T03:11:44;13.73;;;12.93;;
1276;SDS011;631;51.024;13.826;2024-02-04T03:14:11;13.27;;;12.57;;
1276;SDS011;631;51.024;13.826;2024-02-04T03:16:36;13.90;;;13.10;;
1276;SDS011;631;51.024;13.826;2024-02-04T03:19:04;13.57;;;12.77;;
1276;SDS011;631;51.024;13.826;2024-02-04T03:21:30;13.90;;;13.03;;
1276;SDS011;631;51.024;13.826;2024-02-04T03:23:56;13.87;;;13.00;;
1276;SDS011;631;51.024;13.826;2024-02-04T03:26:22;13.30;;;12.50;;
1276;SDS011;631;51.024;13.826;2024-02-04T03:28:47;13.63;;;12.83;;
1276;SDS011;631;51.024;13.826;2024-02-04T03:31:19;13.83;;;13.03;;
1276;SDS011;631;51.024;13.826;2024-02-04T03:33:48;14.10;;;13.30;;
1276;SDS011;631;51.024;13.826;2024-02-04T03:36:20;13.47;;;12.77;;
1276;SDS011;631;51.024;13.826;2024-02-04T03:38:48;14.00;;;13.20;;
1276;SDS011;631;51.024;13.826;2024-02-04T03:41:14;14.30;;;13.40;;
1276;SDS011;631;51.024;13.826;2024-02-04T03:43:40;13.60;;;12.90;;
1276;SDS011;631;51.024;13.826;2024-02-04T03:46:06;13.20;;;12.50;;
1276;SDS011;631;51.024;13.826;2024-02-04T03:48:31;13.17;;;12.50;;
1276;SDS011;631;51.024;13.826;2024-02-04T03:50:58;13.70;;;12.90;;
1276;SDS011;631;51.024;13.826;2024-02-04T03:53:24;13.60;;;12.90;;
1276;SDS011;631;51.024;13.826;2024-02-04T03:55:50;12.90;;;12.30;;
1276;SDS011;631;51.024;13.826;2024-02-04T03:58:16;14.00;;;13.20;;
1276;SDS011;631;51.024;13.826;2024-02-04T04:00:41;12.77;;;12.17;;
1276;SDS011;631;51.024;13.826;2024-02-04T04:03:07;13.63;;;12.73;;
1276;SDS011;631;51.024;13.826;2024-02-04T04:05:33;13.20;;;12.50;;
1276;SDS011;631;51.024;13.826;2024-02-04T04:07:58;13.20;;;12.60;;
1276;SDS011;631;51.024;13.826;2024-02-04T04:10:24;13.23;;;12.60;;
1276;SDS011;631;51.024;13.826;2024-02-04T04:12:50;13.10;;;12.50;;
1276;SDS011;631;51.024;13.826;2024-02-04T04:15:15;13.17;;;12.50;;
1276;SDS011;631;51.024;13.826;2024-02-04T04:17:41;13.77;;;13.07;;
1276;SDS011;631;51.024;13.826;2024-02-04T04:20:07;14.00;;;13.20;;
1276;SDS011;631;51.024;13.826;2024-02-04T04:22:33;13.60;;;12.90;;
1276;SDS011;631;51.024;13.826;2024-02-04T04:24:58;13.87;;;13.17;;
1276;SDS011;631;51.024;13.826;2024-02-04T04:27:24;13.80;;;13.00;;
1276;SDS011;631;51.024;13.826;2024-02-04T04:29:50;14.20;;;13.40;;
1276;SDS011;631;51.024;13.826;2024-02-04T04:32:15;12.90;;;12.30;;
1276;SDS011;631;51.024;13.826;2024-02-04T04:34:41;12.70;;;12.10;;
1276;SDS011;631;51.024;13.826;2024-02-04T04:37:06;13.20;;;12.50;;
1276;SDS011;631;51.024;13.826;2024-02-04T04:39:32;13.70;;;12.90;;
1276;SDS011;631;51.024;13.826;2024-02-04T04:41:58;13.87;;;13.07;;
1276;SDS011;631;51.024;13.826;2024-02-04T04:44:23;13.57;;;12.87;;
1276;SDS011;631;51.024;13.826;2024-02-04T04:46:49;13.83;;;13.07;;
1276;SDS011;631;51.024;13.826;2024-02-04T04:49:14;13.57;;;12.87;;
1276;SDS011;631;51.024;13.826;2024-02-04T04:51:44;12.80;;;12.20;;
1276;SDS011;631;51.024;13.826;2024-02-04T04:54:11;12.90;;;12.20;;
1276;SDS011;631;51.024;13.826;2024-02-04T04:56:40;13.70;;;12.93;;
1276;SDS011;631;51.024;13.826;2024-02-04T04:59:08;13.17;;;12.47;;
1276;SDS011;631;51.024;13.826;2024-02-04T05:01:34;13.07;;;12.37;;
1276;SDS011;631;51.024;13.826;2024-02-04T05:04:00;12.90;;;12.27;;
1276;SDS011;631;51.024;13.826;2024-02-04T05:06:26;13.10;;;12.40;;
1276;SDS011;631;51.024;13.826;2024-02-04T05:08:52;12.20;;;11.60;;
1276;SDS011;631;51.024;13.826;2024-02-04T05:11:17;12.80;;;12.10;;
1276;SDS011;631;51.024;13.826;2024-02-04T05:13:43;12.00;;;11.40;;
1276;SDS011;631;51.024;13.826;2024-02-04T05:16:09;13.10;;;12.30;;
1276;SDS011;631;51.024;13.826;2024-02-04T05:18:34;12.03;;;11.43;;
1276;SDS011;631;51.024;13.826;2024-02-04T05:21:01;12.30;;;11.70;;
1276;SDS011;631;51.024;13.826;2024-02-04T05:23:27;12.93;;;12.23;;
1276;SDS011;631;51.024;13.826;2024-02-04T05:25:53;12.63;;;12.03;;
1276;SDS011;631;51.024;13.826;2024-02-04T05:28:19;12.83;;;12.13;;
1276;SDS011;631;51.024;13.826;2024-02-04T05:30:45;12.50;;;11.90;;
1276;SDS011;631;51.024;13.826;2024-02-04T05:33:13;12.50;;;11.77;;
1276;SDS011;631;51.024;13.826;2024-02-04T05:35:39;11.80;;;11.20;;
1276;SDS011;631;51.024;13.826;2024-02-04T05:38:07;12.17;;;11.57;;
1276;SDS011;631;51.024;13.826;2024-02-04T05:40:33;12.40;;;11.80;;
1276;SDS011;631;51.024;13.826;2024-02-04T05:42:59;12.37;;;11.70;;
1276;SDS011;631;51.024;13.826;2024-02-04T05:45:24;12.83;;;12.17;;
1276;SDS011;631;51.024;13.826;2024-02-04T05:47:50;13.07;;;12.27;;
1276;SDS011;631;51.024;13.826;2024-02-04T05:50:16;12.40;;;11.80;;
1276;SDS011;631;51.024;13.826;2024-02-04T05:52:41;12.70;;;12.00;;
1276;SDS011;631;51.024;13.826;2024-02-04T05:55:07;12.53;;;11.90;;
1276;SDS011;631;51.024;13.826;2024-02-04T05:57:34;11.80;;;11.30;;
1276;SDS011;631;51.024;13.826;2024-02-04T06:00:00;12.80;;;12.00;;
1276;SDS011;631;51.024;13.826;2024-02-04T06:02:26;12.33;;;11.73;;
1276;SDS011;631;51.024;13.826;2024-02-04T06:04:51;12.13;;;11.40;;
1276;SDS011;631;51.024;13.826;2024-02-04T06:07:17;12.47;;;11.77;;
1276;SDS011;631;51.024;13.826;2024-02-04T06:09:42;12.33;;;11.73;;
1276;SDS011;631;51.024;13.826;2024-02-04T06:12:08;13.03;;;12.33;;
1276;SDS011;631;51.024;13.826;2024-02-04T06:14:34;12.20;;;11.60;;
1276;SDS011;631;51.024;13.826;2024-02-04T06:17:01;12.80;;;12.10;;
1276;SDS011;631;51.024;13.826;2024-02-04T06:19:26;12.27;;;11.67;;
1276;SDS011;631;51.024;13.826;2024-02-04T06:21:52;12.63;;;11.83;;
1276;SDS011;631;51.024;13.826;2024-02-04T06:24:18;12.33;;;11.63;;
1276;SDS011;631;51.024;13.826;2024-02-04T06:26:45;13.10;;;12.40;;
1276;SDS011;631;51.024;13.826;2024-02-04T06:29:10;12.47;;;11.77;;
1276;SDS011;631;51.024;13.826;2024-02-04T06:31:36;12.90;;;12.20;;
1276;SDS011;631;51.024;13.826;2024-02-04T06:34:02;12.60;;;12.00;;
1276;SDS011;631;51.024;13.826;2024-02-04T06:36:27;14.33;;;13.53;;
1276;SDS011;631;51.024;13.826;2024-02-04T06:38:53;14.40;;;13.63;;
1276;SDS011;631;51.024;13.826;2024-02-04T06:41:18;14.90;;;14.10;;
1276;SDS011;631;51.024;13.826;2024-02-04T06:43:44;14.13;;;13.43;;
1276;SDS011;631;51.024;13.826;2024-02-04T06:46:11;14.63;;;13.80;;
1276;SDS011;631;51.024;13.826;2024-02-04T06:48:36;13.33;;;12.73;;
1276;SDS011;631;51.024;13.826;2024-02-04T06:51:02;13.53;;;12.90;;
1276;SDS011;631;51.024;13.826;2024-02-04T06:53:28;13.40;;;12.80;;
1276;SDS011;631;51.024;13.826;2024-02-04T06:55:53;14.40;;;13.70;;
1276;SDS011;631;51.024;13.826;2024-02-04T06:58:19;13.80;;;13.10;;
1276;SDS011;631;51.024;13.826;2024-02-04T07:00:45;14.03;;;13.33;;
1276;SDS011;631;51.024;13.826;2024-02-04T07:03:11;12.90;;;12.30;;
1276;SDS011;631;51.024;13.826;2024-02-04T07:05:37;13.53;;;12.80;;
1276;SDS011;631;51.024;13.826;2024-02-04T07:08:03;14.23;;;13.47;;
1276;SDS011;631;51.024;13.826;2024-02-04T07:10:28;13.97;;;13.27;;
1276;SDS011;631;51.024;13.826;2024-02-04T07:12:54;14.37;;;13.57;;
1276;SDS011;631;51.024;13.826;2024-02-04T07:15:20;13.77;;;13.07;;
1276;SDS011;631;51.024;13.826;2024-02-04T07:17:45;14.00;;;13.30;;
1276;SDS011;631;51.024;13.826;2024-02-04T07:20:11;14.03;;;13.33;;
1276;SDS011;631;51.024;13.826;2024-02-04T07:22:36;13.60;;;13.00;;
1276;SDS011;631;51.024;13.826;2024-02-04T07:25:02;13.50;;;12.80;;
1276;SDS011;631;51.024;13.826;2024-02-04T07:27:28;14.23;;;13.53;;
1276;SDS011;631;51.024;13.826;2024-02-04T07:29:54;13.97;;;13.37;;
1276;SDS011;631;51.024;13.826;2024-02-04T07:32:20;14.50;;;13.80;;
1276;SDS011;631;51.024;13.826;2024-02-04T07:34:46;14.37;;;13.67;;
1276;SDS011;631;51.024;13.826;2024-02-04T07:37:11;14.20;;;13.50;;
1276;SDS011;631;51.024;13.826;2024-02-04T07:39:37;13.67;;;13.07;;
1276;SDS011;631;51.024;13.826;2024-02-04T07:42:02;15.10;;;14.33;;
1276;SDS011;631;51.024;13.826;2024-02-04T07:44:28;13.93;;;13.33;;
1276;SDS011;631;51.024;13.826;2024-02-04T07:46:54;13.93;;;13.20;;
1276;SDS011;631;51.024;13.826;2024-02-04T07:49:20;17.73;;;16.47;;
1276;SDS011;631;51.024;13.826;2024-02-04T07:51:45;13.87;;;13.17;;
1276;SDS011;631;51.024;13.826;2024-02-04T07:54:11;14.20;;;13.50;;
1276;SDS011;631;51.024;13.826;2024-02-04T07:56:37;13.43;;;12.83;;
1276;SDS011;631;51.024;13.826;2024-02-04T07:59:02;13.73;;;13.13;;
1276;SDS011;631;51.024;13.826;2024-02-04T08:01:28;13.60;;;13.00;;
1276;SDS011;631;51.024;13.826;2024-02-04T08:03:54;13.80;;;13.20;;
1276;SDS011;631;51.024;13.826;2024-02-04T08:06:20;13.43;;;12.83;;
1276;SDS011;631;51.024;13.826;2024-02-04T08:08:46;12.30;;;11.80;;
1276;SDS011;631;51.024;13.826;2024-02-04T08:11:15;13.13;;;12.60;;
1276;SDS011;631;51.024;13.826;2024-02-04T08:13:42;12.30;;;11.80;;
1276;SDS011;631;51.024;13.826;2024-02-04T08:16:09;12.10;;;11.60;;
1276;SDS011;631;51.024;13.826;2024-02-04T08:18:35;11.67;;;11.20;;
1276;SDS011;631;51.024;13.826;2024-02-04T08:21:00;11.27;;;10.80;;
1276;SDS011;631;51.024;13.826;2024-02-04T08:23:26;10.63;;;10.23;;
1276;SDS011;631;51.024;13.826;2024-02-04T08:25:55;11.23;;;10.73;;
1276;SDS011;631;51.024;13.826;2024-02-04T08:28:21;11.13;;;10.73;;
1276;SDS011;631;51.024;13.826;2024-02-04T08:30:48;10.57;;;10.17;;
1276;SDS011;631;51.024;13.826;2024-02-04T08:33:14;10.67;;;10.17;;
1276;SDS011;631;51.024;13.826;2024-02-04T08:35:40;9.80;;;9.40;;
1276;SDS011;631;51.024;13.826;2024-02-04T08:38:05;10.90;;;10.40;;
1276;SDS011;631;51.024;13.826;2024-02-04T08:40:31;10.00;;;9.60;;
1276;SDS011;631;51.024;13.826;2024-02-04T08:42:57;10.83;;;10.43;;
1276;SDS011;631;51.024;13.826;2024-02-04T08:45:22;11.37;;;10.87;;
1276;SDS011;631;51.024;13.826;2024-02-04T08:47:48;10.60;;;10.20;;
1276;SDS011;631;51.024;13.826;2024-02-04T08:50:13;10.37;;;9.97;;
1276;SDS011;631;51.024;13.826;2024-02-04T08:52:39;10.37;;;9.97;;
1276;SDS011;631;51.024;13.826;2024-02-04T08:55:05;11.00;;;10.60;;
1276;SDS011;631;51.024;13.826;2024-02-04T08:57:31;10.50;;;10.10;;
1276;SDS011;631;51.024;13.826;2024-02-04T08:59:56;10.57;;;10.17;;
1276;SDS011;631;51.024;13.826;2024-02-04T09:02:22;10.30;;;9.90;;
1276;SDS011;631;51.024;13.826;2024-02-04T09:04:47;10.37;;;9.97;;
1276;SDS011;631;51.024;13.826;2024-02-04T09:07:13;10.60;;;10.20;;
1276;SDS011;631;51.024;13.826;2024-02-04T09:09:39;10.70;;;10.30;;
1276;SDS011;631;51.024;13.826;2024-02-04T09:12:05;10.20;;;9.80;;
1276;SDS011;631;51.024;13.826;2024-02-04T09:14:30;10.93;;;10.50;;
1276;SDS011;631;51.024;13.826;2024-02-04T09:16:56;10.53;;;10.13;;
1276;SDS011;631;51.024;13.826;2024-02-04T09:19:22;10.83;;;10.43;;
1276;SDS011;631;51.024;13.826;2024-02-04T09:21:49;10.40;;;10.00;;
1276;SDS011;631;51.024;13.826;2024-02-04T09:24:15;11.70;;;11.20;;
1276;SDS011;631;51.024;13.826;2024-02-04T09:26:40;11.27;;;10.80;;
1276;SDS011;631;51.024;13.826;2024-02-04T09:29:06;11.80;;;11.30;;
1276;SDS011;631;51.024;13.826;2024-02-04T09:31:31;12.50;;;11.90;;
1276;SDS011;631;51.024;13.826;2024-02-04T09:33:57;12.57;;;12.07;;
1276;SDS011;631;51.024;13.826;2024-02-04T09:36:23;12.67;;;12.17;;
1276;SDS011;631;51.024;13.826;2024-02-04T09:38:48;12.77;;;12.27;;
1276;SDS011;631;51.024;13.826;2024-02-04T09:41:14;13.53;;;12.93;;
1276;SDS011;631;51.024;13.826;2024-02-04T09:43:40;12.30;;;11.80;;
1276;SDS011;631;51.024;13.826;2024-02-04T09:46:07;12.60;;;12.00;;
1276;SDS011;631;51.024;13.826;2024-02-04T09:48:33;12.40;;;11.90;;
1276;SDS011;631;51.024;13.826;2024-02-04T09:50:58;12.73;;;12.20;;
1276;SDS011;631;51.024;13.826;2024-02-04T09:53:34;12.10;;;11.60;;
1276;SDS011;631;51.024;13.826;2024-02-04T09:56:04;12.07;;;11.57;;
1276;SDS011;631;51.024;13.826;2024-02-04T09:58:31;11.93;;;11.43;;
1276;SDS011;631;51.024;13.826;2024-02-04T10:00:59;12.17;;;11.67;;
1276;SDS011;631;51.024;13.826;2024-02-04T10:03:25;12.23;;;11.73;;
1276;SDS011;631;51.024;13.826;2024-02-04T10:05:51;11.73;;;11.27;;
1276;SDS011;631;51.024;13.826;2024-02-04T10:08:17;11.97;;;11.47;;
1276;SDS011;631;51.024;13.826;2024-02-04T10:10:43;11.70;;;11.20;;
1276;SDS011;631;51.024;13.826;2024-02-04T10:13:09;11.27;;;10.77;;
1276;SDS011;631;51.024;13.826;2024-02-04T10:15:34;11.10;;;10.60;;
1276;SDS011;631;51.024;13.826;2024-02-04T10:18:04;10.67;;;10.27;;
1276;SDS011;631;51.024;13.826;2024-02-04T10:20:31;12.00;;;11.50;;
1276;SDS011;631;51.024;13.826;2024-02-04T10:22:57;11.77;;;11.27;;
1276;SDS011;631;51.024;13.826;2024-02-04T10:25:23;12.60;;;12.10;;
1276;SDS011;631;51.024;13.826;2024-02-04T10:27:49;12.53;;;12.03;;
1276;SDS011;631;51.024;13.826;2024-02-04T10:30:15;12.73;;;12.23;;
1276;SDS011;631;51.024;13.826;2024-02-04T10:32:43;12.80;;;12.20;;
1276;SDS011;631;51.024;13.826;2024-02-04T10:35:11;12.70;;;12.20;;
1276;SDS011;631;51.024;13.826;2024-02-04T10:37:37;12.93;;;12.33;;
1276;SDS011;631;51.024;13.826;2024-02-04T10:40:02;12.47;;;11.87;;
1276;SDS011;631;51.024;13.826;2024-02-04T10:42:29;12.60;;;12.03;;
1276;SDS011;631;51.024;13.826;2024-02-04T10:44:57;13.93;;;13.30;;
1276;SDS011;631;51.024;13.826;2024-02-04T10:47:24;13.37;;;12.67;;
1276;SDS011;631;51.024;13.826;2024-02-04T10:49:55;13.53;;;12.73;;
1276;SDS011;631;51.024;13.826;2024-02-04T10:52:23;13.73;;;13.03;;
1276;SDS011;631;51.024;13.826;2024-02-04T10:54:52;13.90;;;13.20;;
1276;SDS011;631;51.024;13.826;2024-02-04T10:57:21;13.80;;;13.20;;
1276;SDS011;631;51.024;13.826;2024-02-04T10:59:55;13.57;;;12.77;;
1276;SDS011;631;51.024;13.826;2024-02-04T11:02:23;13.77;;;13.07;;
1276;SDS011;631;51.024;13.826;2024-02-04T11:04:50;13.63;;;12.93;;
1276;SDS011;631;51.024;13.826;2024-02-04T11:07:17;14.07;;;13.27;;
1276;SDS011;631;51.024;13.826;2024-02-04T11:09:45;13.33;;;12.73;;
1276;SDS011;631;51.024;13.826;2024-02-04T11:12:14;13.27;;;12.57;;
1276;SDS011;631;51.024;13.826;2024-02-04T11:14:44;12.93;;;12.30;;
1276;SDS011;631;51.024;13.826;2024-02-04T11:17:31;12.67;;;12.17;;
1276;SDS011;631;51.024;13.826;2024-02-04T11:27:58;12.83;;;12.23;;
1276;SDS011;631;51.024;13.826;2024-02-04T11:30:26;12.90;;;12.40;;
1276;SDS011;631;51.024;13.826;2024-02-04T11:32:52;11.50;;;11.00;;
1276;SDS011;631;51.024;13.826;2024-02-04T11:35:19;12.63;;;12.13;;
1276;SDS011;631;51.024;13.826;2024-02-04T11:37:45;12.17;;;11.67;;
1276;SDS011;631;51.024;13.826;2024-02-04T11:40:14;12.30;;;11.80;;
1276;SDS011;631;51.024;13.826;2024-02-04T11:42:44;12.17;;;11.30;;
1276;SDS011;631;51.024;13.826;2024-02-04T11:45:13;11.60;;;11.10;;
1276;SDS011;631;51.024;13.826;2024-02-04T11:47:39;12.43;;;11.87;;
1276;SDS011;631;51.024;13.826;2024-02-04T11:50:05;12.13;;;11.63;;
1276;SDS011;631;51.024;13.826;2024-02-04T11:52:32;11.67;;;11.17;;
1276;SDS011;631;51.024;13.826;2024-02-04T11:54:58;10.50;;;10.03;;
1276;SDS011;631;51.024;13.826;2024-02-04T11:57:24;11.00;;;10.60;;
1276;SDS011;631;51.024;13.826;2024-02-04T11:59:50;10.57;;;10.07;;
1276;SDS011;631;51.024;13.826;2024-02-04T12:04:45;12.53;;;11.93;;
1276;SDS011;631;51.024;13.826;2024-02-04T12:07:11;12.60;;;12.00;;
1276;SDS011;631;51.024;13.826;2024-02-04T12:09:38;12.40;;;11.90;;
1276;SDS011;631;51.024;13.826;2024-02-04T12:12:04;12.70;;;12.10;;
1276;SDS011;631;51.024;13.826;2024-02-04T12:14:30;11.93;;;11.30;;
1276;SDS011;631;51.024;13.826;2024-02-04T12:16:56;12.63;;;12.10;;
1276;SDS011;631;51.024;13.826;2024-02-04T12:19:22;12.50;;;11.90;;
1276;SDS011;631;51.024;13.826;2024-02-04T12:21:48;12.30;;;11.70;;
1276;SDS011;631;51.024;13.826;2024-02-04T12:24:14;13.00;;;12.30;;
1276;SDS011;631;51.024;13.826;2024-02-04T12:26:40;12.00;;;11.40;;
1276;SDS011;631;51.024;13.826;2024-02-04T12:29:07;11.80;;;11.30;;
1276;SDS011;631;51.024;13.826;2024-02-04T12:31:33;12.13;;;11.53;;
1276;SDS011;631;51.024;13.826;2024-02-04T12:33:59;11.43;;;10.93;;
1276;SDS011;631;51.024;13.826;2024-02-04T12:36:29;11.80;;;11.20;;
1276;SDS011;631;51.024;13.826;2024-02-04T12:38:56;11.60;;;11.00;;
1276;SDS011;631;51.024;13.826;2024-02-04T12:41:25;11.00;;;10.50;;
1276;SDS011;631;51.024;13.826;2024-02-04T12:43:52;10.43;;;9.93;;
1276;SDS011;631;51.024;13.826;2024-02-04T12:46:21;10.60;;;10.00;;
1276;SDS011;631;51.024;13.826;2024-02-04T12:48:51;10.90;;;10.30;;
1276;SDS011;631;51.024;13.826;2024-02-04T12:51:28;11.70;;;11.20;;
1276;SDS011;631;51.024;13.826;2024-02-04T12:54:28;12.30;;;11.70;;
1276;SDS011;631;51.024;13.826;2024-02-04T12:56:48;10.50;;;10.00;;
1276;SDS011;631;51.024;13.826;2024-02-04T12:59:27;11.30;;;10.80;;
1276;SDS011;631;51.024;13.826;2024-02-04T13:01:55;11.20;;;10.60;;
1276;SDS011;631;51.024;13.826;2024-02-04T13:04:21;12.17;;;11.57;;
1276;SDS011;631;51.024;13.826;2024-02-04T13:06:47;11.30;;;10.80;;
1276;SDS011;631;51.024;13.826;2024-02-04T13:09:16;12.00;;;11.40;;
1276;SDS011;631;51.024;13.826;2024-02-04T13:11:42;11.20;;;10.70;;
1276;SDS011;631;51.024;13.826;2024-02-04T13:14:08;12.00;;;11.23;;
1276;SDS011;631;51.024;13.826;2024-02-04T13:16:34;10.13;;;9.73;;
1276;SDS011;631;51.024;13.826;2024-02-04T13:19:03;11.20;;;10.70;;
1276;SDS011;631;51.024;13.826;2024-02-04T13:21:29;10.87;;;10.37;;
1276;SDS011;631;51.024;13.826;2024-02-04T13:23:54;10.37;;;9.90;;
1276;SDS011;631;51.024;13.826;2024-02-04T13:26:20;11.10;;;10.60;;
1276;SDS011;631;51.024;13.826;2024-02-04T13:28:46;11.70;;;10.80;;
1276;SDS011;631;51.024;13.826;2024-02-04T13:31:12;11.80;;;11.20;;
1276;SDS011;631;51.024;13.826;2024-02-04T13:33:38;10.30;;;9.80;;
1276;SDS011;631;51.024;13.826;2024-02-04T13:36:05;11.57;;;11.00;;
1276;SDS011;631;51.024;13.826;2024-02-04T13:38:32;10.33;;;9.83;;
1276;SDS011;631;51.024;13.826;2024-02-04T13:40:58;10.80;;;10.20;;
1276;SDS011;631;51.024;13.826;2024-02-04T13:43:24;13.60;;;13.00;;
1276;SDS011;631;51.024;13.826;2024-02-04T13:45:49;13.47;;;12.87;;
1276;SDS011;631;51.024;13.826;2024-02-04T13:48:15;12.83;;;12.23;;
1276;SDS011;631;51.024;13.826;2024-02-04T13:50:40;14.17;;;13.47;;
1276;SDS011;631;51.024;13.826;2024-02-04T13:53:09;13.70;;;13.00;;
1276;SDS011;631;51.024;13.826;2024-02-04T13:55:36;13.80;;;13.10;;
1276;SDS011;631;51.024;13.826;2024-02-04T13:58:02;13.93;;;13.33;;
1276;SDS011;631;51.024;13.826;2024-02-04T14:00:28;13.90;;;13.20;;
1276;SDS011;631;51.024;13.826;2024-02-04T14:02:54;13.27;;;12.57;;
1276;SDS011;631;51.024;13.826;2024-02-04T14:05:19;13.30;;;12.70;;
1276;SDS011;631;51.024;13.826;2024-02-04T14:07:45;12.30;;;11.70;;
1276;SDS011;631;51.024;13.826;2024-02-04T14:10:11;12.80;;;12.20;;
1276;SDS011;631;51.024;13.826;2024-02-04T14:12:39;13.13;;;12.43;;
1276;SDS011;631;51.024;13.826;2024-02-04T14:15:06;14.40;;;13.70;;
1276;SDS011;631;51.024;13.826;2024-02-04T14:17:32;13.63;;;13.03;;
1276;SDS011;631;51.024;13.826;2024-02-04T14:19:58;14.33;;;13.63;;
1276;SDS011;631;51.024;13.826;2024-02-04T14:22:24;14.30;;;13.60;;
1276;SDS011;631;51.024;13.826;2024-02-04T14:24:50;14.00;;;13.33;;
1276;SDS011;631;51.024;13.826;2024-02-04T14:27:15;13.70;;;13.10;;
1276;SDS011;631;51.024;13.826;2024-02-04T14:29:41;13.27;;;12.67;;
1276;SDS011;631;51.024;13.826;2024-02-04T14:32:07;13.60;;;13.00;;
1276;SDS011;631;51.024;13.826;2024-02-04T14:34:34;13.43;;;12.83;;
1276;SDS011;631;51.024;13.826;2024-02-04T14:36:59;13.30;;;12.70;;
1276;SDS011;631;51.024;13.826;2024-02-04T14:39:25;13.13;;;12.53;;
1276;SDS011;631;51.024;13.826;2024-02-04T14:41:51;12.27;;;11.70;;
1276;SDS011;631;51.024;13.826;2024-02-04T14:44:19;12.30;;;11.70;;
1276;SDS011;631;51.024;13.826;2024-02-04T14:46:45;12.07;;;11.40;;
1276;SDS011;631;51.024;13.826;2024-02-04T14:49:11;12.13;;;11.53;;
1276;SDS011;631;51.024;13.826;2024-02-04T14:51:39;11.70;;;11.10;;
1276;SDS011;631;51.024;13.826;2024-02-04T14:54:09;12.50;;;11.70;;
1276;SDS011;631;51.024;13.826;2024-02-04T14:56:38;12.60;;;11.77;;
1276;SDS011;631;51.024;13.826;2024-02-04T14:59:04;11.60;;;11.10;;